createdAt,value
2023-02-21T05:04:43.454Z,6.47
2023-02-21T05:08:55.013Z,7.50
2023-02-21T05:13:06.452Z,5.03
2023-02-21T05:17:18.402Z,9.10
2023-02-21T05:21:35.148Z,6.27
2023-02-21T05:25:46.772Z,8.17
2023-02-21T05:29:58.235Z,6.33
2023-02-21T05:34:09.740Z,9.50
2023-02-21T05:38:22.900Z,8.33
2023-02-21T05:42:34.355Z,7.30
2023-02-21T05:46:46.136Z,8.50
2023-02-21T05:50:57.685Z,8.03
2023-02-21T05:55:09.117Z,10.23
2023-02-21T05:59:21.603Z,32.53
2023-02-21T06:03:33.205Z,16.87
2023-02-21T06:07:45.188Z,17.10
2023-02-21T06:11:57.281Z,17.33
2023-02-21T06:16:08.810Z,15.00
2023-02-21T06:20:20.354Z,12.87
2023-02-21T06:24:31.903Z,9.90
2023-02-21T06:28:43.577Z,13.00
2023-02-21T06:32:55.025Z,11.03
2023-02-21T06:37:06.984Z,12.40
2023-02-21T06:41:20.362Z,14.90
2023-02-21T06:45:31.849Z,10.87
2023-02-21T06:49:43.790Z,13.43
2023-02-21T06:53:56.674Z,13.00
2023-02-21T06:58:08.210Z,15.27
2023-02-21T07:02:20.220Z,15.83
2023-02-21T07:06:33.375Z,10.20
2023-02-21T07:10:44.901Z,9.27
2023-02-21T07:14:56.546Z,12.53
2023-02-21T07:19:08.056Z,15.17
2023-02-21T07:23:22.231Z,12.53
2023-02-21T07:27:33.716Z,13.53
2023-02-21T07:31:45.217Z,11.17
2023-02-21T07:35:56.901Z,11.93
2023-02-21T07:40:08.874Z,11.87
2023-02-21T07:44:20.384Z,11.37
2023-02-21T07:48:31.892Z,14.70
2023-02-21T07:52:43.658Z,16.53
2023-02-21T07:56:55.109Z,22.63
2023-02-21T08:01:07.466Z,17.17
2023-02-21T08:05:20.363Z,16.50
2023-02-21T08:09:33.245Z,15.30
2023-02-21T08:13:44.694Z,15.17
2023-02-21T08:17:56.154Z,17.23
2023-02-21T08:22:07.614Z,18.23
2023-02-21T08:26:19.059Z,17.37
2023-02-21T08:30:30.560Z,16.63
2023-02-21T08:34:45.891Z,17.63
2023-02-21T08:38:57.317Z,18.47
2023-02-21T08:43:08.772Z,16.20
2023-02-21T08:47:20.234Z,14.33
2023-02-21T08:51:33.118Z,14.63
2023-02-21T08:55:44.632Z,16.57
2023-02-21T08:59:56.152Z,13.07
2023-02-21T09:04:07.628Z,13.20
2023-02-21T09:08:20.753Z,15.23
2023-02-21T09:12:32.249Z,13.88
2023-02-21T09:16:45.311Z,14.50
2023-02-21T09:20:59.212Z,13.55
2023-02-21T09:25:13.026Z,15.30
2023-02-21T09:29:29.653Z,16.00
2023-02-21T09:33:44.473Z,18.65
2023-02-21T09:37:58.182Z,16.73
2023-02-21T09:42:16.508Z,19.08
2023-02-21T09:46:40.811Z,18.17
2023-02-21T09:50:56.060Z,17.88
2023-02-21T09:55:20.592Z,18.58
2023-02-21T09:59:32.936Z,16.08
2023-02-21T10:03:51.756Z,15.90
2023-02-21T10:08:30.103Z,17.38
2023-02-21T10:12:49.726Z,19.20
2023-02-21T10:17:13.055Z,18.52
2023-02-21T10:21:29.743Z,21.38
2023-02-21T10:25:44.650Z,18.60
2023-02-21T10:30:04.570Z,19.23
2023-02-21T10:34:35.438Z,18.08
2023-02-21T10:38:58.897Z,19.30
2023-02-21T10:43:36.566Z,20.33
2023-02-21T10:47:59.004Z,16.48
2023-02-21T10:52:13.767Z,16.75
2023-02-21T10:56:27.086Z,14.93
2023-02-21T11:00:47.657Z,13.27
2023-02-21T11:05:16.568Z,17.95
2023-02-21T11:09:27.982Z,17.05
2023-02-21T11:13:39.524Z,18.08
2023-02-21T11:18:04.728Z,13.43
2023-02-21T11:22:20.048Z,15.88
2023-02-21T11:26:38.544Z,11.20
2023-02-21T11:31:06.148Z,13.18
2023-02-21T11:35:20.277Z,7.97
2023-02-21T11:39:33.431Z,8.82
2023-02-21T11:43:53.121Z,9.43
2023-02-21T11:48:11.711Z,5.82
2023-02-21T11:52:29.640Z,5.75
2023-02-21T11:56:53.408Z,10.00
2023-02-21T12:01:15.649Z,6.90
2023-02-21T12:05:27.255Z,3.25
2023-02-21T12:09:44.636Z,5.78
2023-02-21T12:14:24.336Z,3.75
2023-02-21T12:19:13.623Z,6.20
2023-02-21T12:23:32.778Z,4.82
2023-02-21T12:28:00.498Z,3.85
2023-02-21T12:32:24.201Z,4.10
2023-02-21T12:36:59.957Z,2.58
2023-02-21T12:41:30.604Z,2.30
2023-02-21T12:45:49.458Z,2.97
2023-02-21T12:50:11.965Z,2.30
2023-02-21T12:54:28.096Z,3.70
2023-02-21T12:58:52.862Z,2.65
2023-02-21T13:03:38.274Z,2.88
2023-02-21T13:08:00.273Z,2.65
2023-02-21T13:12:16.430Z,2.72
2023-02-21T13:16:28.089Z,5.95
2023-02-21T13:20:44.324Z,4.28
2023-02-21T13:25:21.331Z,2.97
2023-02-21T13:29:36.513Z,2.13
2023-02-21T13:33:55.320Z,3.55
2023-02-21T13:38:10.417Z,3.72
2023-02-21T13:42:26.020Z,3.47
2023-02-21T13:46:37.585Z,3.65
2023-02-21T13:50:52.247Z,6.32
2023-02-21T13:55:15.599Z,3.53
2023-02-21T13:59:33.557Z,2.85
2023-02-21T14:03:45.386Z,7.85
2023-02-21T14:08:07.158Z,7.35
2023-02-21T14:12:18.715Z,3.60
2023-02-21T14:16:53.442Z,2.58
2023-02-21T14:21:23.260Z,4.32
2023-02-21T14:25:35.608Z,3.20
2023-02-21T14:30:02.556Z,5.28
2023-02-21T14:34:18.088Z,3.47
2023-02-21T14:38:36.546Z,3.92
2023-02-21T14:43:10.773Z,2.55
2023-02-21T14:47:46.678Z,3.60
2023-02-21T14:52:17.780Z,3.25
2023-02-21T14:57:06.695Z,3.10
2023-02-21T15:01:56.234Z,2.50
2023-02-21T15:06:19.105Z,2.75
2023-02-21T15:10:33.568Z,1.38
2023-02-21T15:14:52.040Z,1.02
2023-02-21T15:19:03.850Z,1.33
2023-02-21T15:23:21.547Z,2.08
2023-02-21T15:27:34.380Z,2.45
2023-02-21T15:31:52.573Z,1.13
2023-02-21T15:36:19.817Z,1.00
2023-02-21T15:40:32.279Z,1.45
2023-02-21T15:44:49.373Z,1.20
2023-02-21T15:49:04.220Z,1.02
2023-02-21T15:53:19.332Z,1.58
2023-02-21T15:57:31.399Z,1.08
2023-02-21T16:01:43.097Z,1.20
2023-02-21T16:06:08.478Z,2.00
2023-02-21T16:10:24.510Z,6.90
2023-02-21T16:14:40.971Z,9.05
2023-02-21T16:18:56.741Z,8.55
2023-02-21T16:23:20.324Z,4.07
2023-02-21T16:27:31.807Z,3.45
2023-02-21T16:31:43.380Z,3.45
2023-02-21T16:35:55.825Z,3.00
2023-02-21T16:40:22.408Z,3.50
2023-02-21T16:44:34.318Z,3.80
2023-02-21T16:48:45.809Z,3.85
2023-02-21T16:52:57.902Z,6.18
2023-02-21T16:57:10.942Z,4.97
2023-02-21T17:01:29.461Z,5.78
2023-02-21T17:05:41.030Z,4.18
2023-02-21T17:09:53.894Z,5.30
2023-02-21T17:14:05.519Z,5.72
2023-02-21T17:18:17.052Z,6.03
2023-02-21T17:22:28.783Z,6.38
2023-02-21T17:26:40.872Z,9.93
2023-02-21T17:30:52.455Z,12.30
2023-02-21T17:35:04.625Z,14.88
2023-02-21T17:39:18.096Z,13.00
2023-02-21T17:43:30.874Z,12.48
2023-02-21T17:47:42.460Z,11.52
2023-02-21T17:51:54.579Z,16.77
2023-02-21T17:56:06.089Z,9.32
2023-02-21T18:00:28.432Z,11.57
2023-02-21T18:04:40.611Z,13.15
2023-02-21T18:08:52.934Z,18.45
2023-02-21T18:13:04.697Z,21.88
2023-02-21T18:17:18.351Z,24.60
2023-02-21T18:21:29.872Z,28.58
2023-02-21T18:25:41.355Z,30.08
2023-02-21T18:29:55.928Z,27.25
2023-02-21T18:34:07.611Z,25.25
2023-02-21T18:38:19.366Z,19.42
2023-02-21T18:42:31.606Z,19.52
2023-02-21T18:46:51.108Z,16.80
2023-02-21T18:51:03.076Z,18.23
2023-02-21T18:55:14.578Z,12.98
2023-02-21T18:59:26.153Z,12.80
2023-02-21T19:03:37.686Z,11.30
2023-02-21T19:07:49.457Z,11.40
2023-02-21T19:12:04.128Z,10.40
2023-02-21T19:16:17.035Z,8.90
2023-02-21T19:20:28.595Z,7.88
2023-02-21T19:24:40.141Z,8.82
2023-02-21T19:28:51.646Z,8.05
2023-02-21T19:33:05.984Z,9.98
2023-02-21T19:37:18.232Z,9.95
2023-02-21T19:41:29.832Z,8.90
2023-02-21T19:45:41.477Z,11.38
2023-02-21T19:49:53.049Z,8.68
2023-02-21T19:54:04.641Z,10.48
2023-02-21T19:58:17.392Z,11.50
2023-02-21T20:02:29.009Z,12.02
2023-02-21T20:06:40.647Z,10.82
2023-02-21T20:10:52.293Z,12.02
2023-02-21T20:15:05.033Z,11.95
2023-02-21T20:19:16.582Z,16.65
2023-02-21T20:23:28.145Z,14.48
2023-02-21T20:27:41.661Z,11.63
2023-02-21T20:31:55.114Z,10.65
2023-02-21T20:36:07.074Z,16.70
2023-02-21T20:40:18.699Z,12.80
2023-02-21T20:44:34.212Z,13.35
2023-02-21T20:48:45.740Z,13.63
2023-02-21T20:52:57.168Z,13.38
2023-02-21T20:57:09.524Z,16.48
2023-02-21T21:01:21.074Z,16.48
2023-02-21T21:05:32.588Z,19.20
2023-02-21T21:09:44.507Z,21.63
2023-02-21T21:13:55.995Z,18.25
2023-02-21T21:18:10.795Z,18.73
2023-02-21T21:22:27.187Z,20.40
2023-02-21T21:26:50.783Z,20.03
2023-02-21T21:31:03.456Z,18.73
2023-02-21T21:35:17.073Z,15.47
2023-02-21T21:39:28.732Z,15.83
2023-02-21T21:43:45.175Z,15.43
2023-02-21T21:48:00.583Z,15.70
2023-02-21T21:52:12.712Z,14.03
2023-02-21T21:56:27.187Z,14.73
2023-02-21T22:00:46.733Z,12.57
2023-02-21T22:04:58.247Z,13.70
2023-02-21T22:09:15.154Z,12.73
2023-02-21T22:13:29.301Z,14.10
2023-02-21T22:17:40.853Z,11.40
2023-02-21T22:21:56.930Z,14.37
2023-02-21T22:26:21.280Z,11.67
